sensor_id;sensor_type;location;lat;lon;timestamp;P1;durP1;ratioP1;P2;durP2;ratioP2
59972;SDS011;55298;-36.624;-64.282;2022-11-18T00:01:19;3.50;;;2.40;;
59972;SDS011;55298;-36.624;-64.282;2022-11-18T00:03:52;5.03;;;2.40;;
59972;SDS011;55298;-36.624;-64.282;2022-11-18T00:06:24;4.35;;;2.40;;
59972;SDS011;55298;-36.624;-64.282;2022-11-18T00:08:54;4.93;;;2.75;;
59972;SDS011;55298;-36.624;-64.282;2022-11-18T00:11:24;5.05;;;3.22;;
59972;SDS011;55298;-36.624;-64.282;2022-11-18T00:14:04;4.18;;;3.20;;
59972;SDS011;55298;-36.624;-64.282;2022-11-18T00:16:45;4.85;;;2.92;;
59972;SDS011;55298;-36.624;-64.282;2022-11-18T00:19:27;5.00;;;3.00;;
59972;SDS011;55298;-36.624;-64.282;2022-11-18T00:21:58;3.03;;;2.63;;
59972;SDS011;55298;-36.624;-64.282;2022-11-18T00:24:26;3.53;;;2.83;;
59972;SDS011;55298;-36.624;-64.282;2022-11-18T00:26:55;3.53;;;2.88;;
59972;SDS011;55298;-36.624;-64.282;2022-11-18T00:29:23;3.50;;;3.20;;
59972;SDS011;55298;-36.624;-64.282;2022-11-18T00:31:53;4.68;;;3.25;;
59972;SDS011;55298;-36.624;-64.282;2022-11-18T00:34:21;5.55;;;2.75;;
59972;SDS011;55298;-36.624;-64.282;2022-11-18T00:36:50;3.13;;;2.67;;
59972;SDS011;55298;-36.624;-64.282;2022-11-18T00:39:19;4.72;;;2.67;;
59972;SDS011;55298;-36.624;-64.282;2022-11-18T00:41:47;3.47;;;2.50;;
59972;SDS011;55298;-36.624;-64.282;2022-11-18T00:44:24;2.85;;;2.47;;
59972;SDS011;55298;-36.624;-64.282;2022-11-18T00:46:53;4.07;;;2.90;;
59972;SDS011;55298;-36.624;-64.282;2022-11-18T00:49:21;3.50;;;2.90;;
59972;SDS011;55298;-36.624;-64.282;2022-11-18T00:51:51;3.92;;;2.45;;
59972;SDS011;55298;-36.624;-64.282;2022-11-18T00:54:25;5.75;;;2.70;;
59972;SDS011;55298;-36.624;-64.282;2022-11-18T00:57:19;2.63;;;2.42;;
59972;SDS011;55298;-36.624;-64.282;2022-11-18T00:59:46;3.90;;;2.50;;
59972;SDS011;55298;-36.624;-64.282;2022-11-18T01:02:15;3.42;;;2.95;;
59972;SDS011;55298;-36.624;-64.282;2022-11-18T01:04:43;4.40;;;3.78;;
59972;SDS011;55298;-36.624;-64.282;2022-11-18T01:07:12;4.47;;;3.17;;
59972;SDS011;55298;-36.624;-64.282;2022-11-18T01:09:40;3.45;;;2.50;;
59972;SDS011;55298;-36.624;-64.282;2022-11-18T01:12:10;3.53;;;2.50;;
59972;SDS011;55298;-36.624;-64.282;2022-11-18T01:14:47;4.07;;;2.42;;
59972;SDS011;55298;-36.624;-64.282;2022-11-18T01:17:16;3.15;;;2.85;;
59972;SDS011;55298;-36.624;-64.282;2022-11-18T01:19:43;4.57;;;3.50;;
59972;SDS011;55298;-36.624;-64.282;2022-11-18T01:22:12;3.45;;;3.15;;
59972;SDS011;55298;-36.624;-64.282;2022-11-18T01:24:39;4.18;;;3.45;;
59972;SDS011;55298;-36.624;-64.282;2022-11-18T01:27:08;4.47;;;2.70;;
59972;SDS011;55298;-36.624;-64.282;2022-11-18T01:29:35;4.38;;;2.60;;
59972;SDS011;55298;-36.624;-64.282;2022-11-18T01:32:04;3.28;;;2.60;;
59972;SDS011;55298;-36.624;-64.282;2022-11-18T01:34:31;3.88;;;2.38;;
59972;SDS011;55298;-36.624;-64.282;2022-11-18T01:37:00;3.45;;;2.38;;
59972;SDS011;55298;-36.624;-64.282;2022-11-18T01:39:30;3.97;;;2.97;;
59972;SDS011;55298;-36.624;-64.282;2022-11-18T01:41:57;4.43;;;3.25;;
59972;SDS011;55298;-36.624;-64.282;2022-11-18T01:47:13;4.25;;;3.25;;
59972;SDS011;55298;-36.624;-64.282;2022-11-18T01:49:42;3.42;;;2.65;;
59972;SDS011;55298;-36.624;-64.282;2022-11-18T01:52:12;4.07;;;2.90;;
59972;SDS011;55298;-36.624;-64.282;2022-11-18T01:54:43;7.05;;;3.13;;
59972;SDS011;55298;-36.624;-64.282;2022-11-18T01:57:17;6.72;;;4.30;;
59972;SDS011;55298;-36.624;-64.282;2022-11-18T01:59:49;6.47;;;5.45;;
59972;SDS011;55298;-36.624;-64.282;2022-11-18T02:02:22;7.15;;;5.57;;
59972;SDS011;55298;-36.624;-64.282;2022-11-18T02:04:54;5.78;;;4.07;;
59972;SDS011;55298;-36.624;-64.282;2022-11-18T02:07:24;3.95;;;2.80;;
59972;SDS011;55298;-36.624;-64.282;2022-11-18T02:09:52;2.50;;;2.30;;
59972;SDS011;55298;-36.624;-64.282;2022-11-18T02:12:21;2.80;;;2.30;;
59972;SDS011;55298;-36.624;-64.282;2022-11-18T02:14:48;2.35;;;2.25;;
59972;SDS011;55298;-36.624;-64.282;2022-11-18T02:17:25;3.95;;;2.40;;
59972;SDS011;55298;-36.624;-64.282;2022-11-18T02:20:11;4.95;;;2.30;;
59972;SDS011;55298;-36.624;-64.282;2022-11-18T02:26:03;2.58;;;2.15;;
59972;SDS011;55298;-36.624;-64.282;2022-11-18T02:31:31;2.83;;;2.10;;
59972;SDS011;55298;-36.624;-64.282;2022-11-18T02:34:27;3.05;;;2.22;;
59972;SDS011;55298;-36.624;-64.282;2022-11-18T02:37:21;3.13;;;2.10;;
59972;SDS011;55298;-36.624;-64.282;2022-11-18T02:40:10;3.67;;;1.98;;
59972;SDS011;55298;-36.624;-64.282;2022-11-18T02:42:42;2.60;;;2.10;;
59972;SDS011;55298;-36.624;-64.282;2022-11-18T02:45:16;2.22;;;1.95;;
59972;SDS011;55298;-36.624;-64.282;2022-11-18T02:47:45;3.47;;;1.92;;
59972;SDS011;55298;-36.624;-64.282;2022-11-18T02:50:18;2.30;;;2.05;;
59972;SDS011;55298;-36.624;-64.282;2022-11-18T02:52:52;2.30;;;2.10;;
59972;SDS011;55298;-36.624;-64.282;2022-11-18T02:55:23;2.22;;;2.03;;
59972;SDS011;55298;-36.624;-64.282;2022-11-18T02:57:55;2.10;;;1.90;;
59972;SDS011;55298;-36.624;-64.282;2022-11-18T03:00:23;1.90;;;1.80;;
59972;SDS011;55298;-36.624;-64.282;2022-11-18T03:02:54;2.10;;;1.90;;
59972;SDS011;55298;-36.624;-64.282;2022-11-18T03:08:12;1.80;;;1.70;;
59972;SDS011;55298;-36.624;-64.282;2022-11-18T03:10:46;2.33;;;1.75;;
59972;SDS011;55298;-36.624;-64.282;2022-11-18T03:13:23;1.80;;;1.70;;
59972;SDS011;55298;-36.624;-64.282;2022-11-18T03:16:00;2.42;;;1.80;;
59972;SDS011;55298;-36.624;-64.282;2022-11-18T03:18:41;5.25;;;1.98;;
59972;SDS011;55298;-36.624;-64.282;2022-11-18T03:21:22;1.85;;;1.70;;
59972;SDS011;55298;-36.624;-64.282;2022-11-18T03:24:08;2.63;;;1.95;;
59972;SDS011;55298;-36.624;-64.282;2022-11-18T03:26:47;4.10;;;2.88;;
59972;SDS011;55298;-36.624;-64.282;2022-11-18T03:29:20;2.47;;;1.70;;
59972;SDS011;55298;-36.624;-64.282;2022-11-18T03:31:53;2.00;;;1.65;;
59972;SDS011;55298;-36.624;-64.282;2022-11-18T03:34:30;2.22;;;2.03;;
59972;SDS011;55298;-36.624;-64.282;2022-11-18T03:37:04;1.77;;;1.67;;
59972;SDS011;55298;-36.624;-64.282;2022-11-18T03:39:35;3.53;;;1.80;;
59972;SDS011;55298;-36.624;-64.282;2022-11-18T03:44:38;1.90;;;1.80;;
59972;SDS011;55298;-36.624;-64.282;2022-11-18T03:47:13;1.80;;;1.70;;
59972;SDS011;55298;-36.624;-64.282;2022-11-18T03:49:51;2.00;;;1.80;;
59972;SDS011;55298;-36.624;-64.282;2022-11-18T03:52:34;1.80;;;1.70;;
59972;SDS011;55298;-36.624;-64.282;2022-11-18T03:55:08;3.00;;;1.90;;
59972;SDS011;55298;-36.624;-64.282;2022-11-18T03:57:48;1.90;;;1.80;;
59972;SDS011;55298;-36.624;-64.282;2022-11-18T04:00:25;1.80;;;1.65;;
59972;SDS011;55298;-36.624;-64.282;2022-11-18T04:02:59;2.15;;;1.90;;
59972;SDS011;55298;-36.624;-64.282;2022-11-18T04:05:28;2.10;;;1.90;;
59972;SDS011;55298;-36.624;-64.282;2022-11-18T04:08:02;2.08;;;1.73;;
59972;SDS011;55298;-36.624;-64.282;2022-11-18T04:11:07;1.80;;;1.70;;
59972;SDS011;55298;-36.624;-64.282;2022-11-18T04:13:29;1.98;;;1.80;;
59972;SDS011;55298;-36.624;-64.282;2022-11-18T04:16:00;1.80;;;1.70;;
59972;SDS011;55298;-36.624;-64.282;2022-11-18T04:18:28;4.18;;;1.80;;
59972;SDS011;55298;-36.624;-64.282;2022-11-18T04:20:56;2.00;;;1.90;;
59972;SDS011;55298;-36.624;-64.282;2022-11-18T04:23:23;1.80;;;1.70;;
59972;SDS011;55298;-36.624;-64.282;2022-11-18T04:25:52;2.10;;;1.95;;
59972;SDS011;55298;-36.624;-64.282;2022-11-18T04:28:21;1.90;;;1.80;;
59972;SDS011;55298;-36.624;-64.282;2022-11-18T04:30:48;2.25;;;1.83;;
59972;SDS011;55298;-36.624;-64.282;2022-11-18T04:33:17;2.55;;;2.10;;
59972;SDS011;55298;-36.624;-64.282;2022-11-18T04:35:46;2.40;;;1.88;;
59972;SDS011;55298;-36.624;-64.282;2022-11-18T04:38:13;1.90;;;1.80;;
59972;SDS011;55298;-36.624;-64.282;2022-11-18T04:40:44;2.05;;;1.90;;
59972;SDS011;55298;-36.624;-64.282;2022-11-18T04:43:12;2.00;;;1.90;;
59972;SDS011;55298;-36.624;-64.282;2022-11-18T04:45:41;2.47;;;2.03;;
59972;SDS011;55298;-36.624;-64.282;2022-11-18T04:48:10;2.30;;;2.00;;
59972;SDS011;55298;-36.624;-64.282;2022-11-18T04:50:38;2.35;;;1.95;;
59972;SDS011;55298;-36.624;-64.282;2022-11-18T04:53:07;2.10;;;2.00;;
59972;SDS011;55298;-36.624;-64.282;2022-11-18T04:55:35;1.90;;;1.80;;
59972;SDS011;55298;-36.624;-64.282;2022-11-18T04:58:04;2.85;;;2.10;;
59972;SDS011;55298;-36.624;-64.282;2022-11-18T05:00:33;1.83;;;1.73;;
59972;SDS011;55298;-36.624;-64.282;2022-11-18T05:03:02;2.22;;;1.95;;
59972;SDS011;55298;-36.624;-64.282;2022-11-18T05:05:30;2.47;;;2.28;;
59972;SDS011;55298;-36.624;-64.282;2022-11-18T05:08:00;2.20;;;2.00;;
59972;SDS011;55298;-36.624;-64.282;2022-11-18T05:10:27;2.20;;;2.05;;
59972;SDS011;55298;-36.624;-64.282;2022-11-18T05:12:55;2.00;;;1.90;;
59972;SDS011;55298;-36.624;-64.282;2022-11-18T05:15:22;2.10;;;1.90;;
59972;SDS011;55298;-36.624;-64.282;2022-11-18T05:17:51;1.88;;;1.77;;
59972;SDS011;55298;-36.624;-64.282;2022-11-18T05:20:18;2.30;;;1.90;;
59972;SDS011;55298;-36.624;-64.282;2022-11-18T05:22:46;1.90;;;1.80;;
59972;SDS011;55298;-36.624;-64.282;2022-11-18T05:25:14;4.82;;;2.03;;
59972;SDS011;55298;-36.624;-64.282;2022-11-18T05:27:42;2.28;;;1.80;;
59972;SDS011;55298;-36.624;-64.282;2022-11-18T05:30:12;2.10;;;1.90;;
59972;SDS011;55298;-36.624;-64.282;2022-11-18T05:32:41;1.90;;;1.80;;
59972;SDS011;55298;-36.624;-64.282;2022-11-18T05:35:10;2.17;;;1.70;;
59972;SDS011;55298;-36.624;-64.282;2022-11-18T05:37:37;1.60;;;1.50;;
59972;SDS011;55298;-36.624;-64.282;2022-11-18T05:40:06;2.10;;;1.70;;
59972;SDS011;55298;-36.624;-64.282;2022-11-18T05:42:35;3.25;;;1.88;;
59972;SDS011;55298;-36.624;-64.282;2022-11-18T05:45:15;2.78;;;1.63;;
59972;SDS011;55298;-36.624;-64.282;2022-11-18T05:47:47;2.00;;;1.80;;
59972;SDS011;55298;-36.624;-64.282;2022-11-18T05:50:24;1.80;;;1.70;;
59972;SDS011;55298;-36.624;-64.282;2022-11-18T05:52:52;1.80;;;1.70;;
59972;SDS011;55298;-36.624;-64.282;2022-11-18T05:55:20;1.70;;;1.60;;
59972;SDS011;55298;-36.624;-64.282;2022-11-18T05:57:50;1.75;;;1.65;;
59972;SDS011;55298;-36.624;-64.282;2022-11-18T06:00:23;1.80;;;1.70;;
59972;SDS011;55298;-36.624;-64.282;2022-11-18T06:03:01;1.80;;;1.73;;
59972;SDS011;55298;-36.624;-64.282;2022-11-18T06:05:39;2.00;;;1.90;;
59972;SDS011;55298;-36.624;-64.282;2022-11-18T06:08:06;2.45;;;1.83;;
59972;SDS011;55298;-36.624;-64.282;2022-11-18T06:10:36;2.00;;;1.70;;
59972;SDS011;55298;-36.624;-64.282;2022-11-18T06:13:10;1.90;;;1.80;;
59972;SDS011;55298;-36.624;-64.282;2022-11-18T06:15:45;1.98;;;1.88;;
59972;SDS011;55298;-36.624;-64.282;2022-11-18T06:18:17;2.05;;;1.85;;
59972;SDS011;55298;-36.624;-64.282;2022-11-18T06:20:52;1.90;;;1.80;;
59972;SDS011;55298;-36.624;-64.282;2022-11-18T06:23:24;1.85;;;1.75;;
59972;SDS011;55298;-36.624;-64.282;2022-11-18T06:25:53;1.88;;;1.70;;
59972;SDS011;55298;-36.624;-64.282;2022-11-18T06:28:22;1.88;;;1.77;;
59972;SDS011;55298;-36.624;-64.282;2022-11-18T06:30:50;2.00;;;1.90;;
59972;SDS011;55298;-36.624;-64.282;2022-11-18T06:33:19;1.95;;;1.60;;
59972;SDS011;55298;-36.624;-64.282;2022-11-18T06:35:46;2.78;;;1.63;;
59972;SDS011;55298;-36.624;-64.282;2022-11-18T06:38:15;2.08;;;1.80;;
59972;SDS011;55298;-36.624;-64.282;2022-11-18T06:40:42;1.90;;;1.80;;
59972;SDS011;55298;-36.624;-64.282;2022-11-18T06:43:10;1.90;;;1.80;;
59972;SDS011;55298;-36.624;-64.282;2022-11-18T06:45:48;1.88;;;1.77;;
59972;SDS011;55298;-36.624;-64.282;2022-11-18T06:48:27;1.80;;;1.70;;
59972;SDS011;55298;-36.624;-64.282;2022-11-18T06:50:56;1.92;;;1.83;;
59972;SDS011;55298;-36.624;-64.282;2022-11-18T06:53:25;2.88;;;1.77;;
59972;SDS011;55298;-36.624;-64.282;2022-11-18T06:55:53;1.88;;;1.77;;
59972;SDS011;55298;-36.624;-64.282;2022-11-18T06:58:21;2.10;;;2.00;;
59972;SDS011;55298;-36.624;-64.282;2022-11-18T07:00:49;1.90;;;1.80;;
59972;SDS011;55298;-36.624;-64.282;2022-11-18T07:03:16;2.08;;;1.80;;
59972;SDS011;55298;-36.624;-64.282;2022-11-18T07:05:44;1.90;;;1.80;;
59972;SDS011;55298;-36.624;-64.282;2022-11-18T07:08:11;3.45;;;1.80;;
59972;SDS011;55298;-36.624;-64.282;2022-11-18T07:10:40;1.98;;;1.88;;
59972;SDS011;55298;-36.624;-64.282;2022-11-18T07:13:16;1.90;;;1.80;;
59972;SDS011;55298;-36.624;-64.282;2022-11-18T07:15:47;2.05;;;1.88;;
59972;SDS011;55298;-36.624;-64.282;2022-11-18T07:18:14;2.08;;;1.88;;
59972;SDS011;55298;-36.624;-64.282;2022-11-18T07:20:43;3.45;;;2.22;;
59972;SDS011;55298;-36.624;-64.282;2022-11-18T07:23:10;2.33;;;1.98;;
59972;SDS011;55298;-36.624;-64.282;2022-11-18T07:25:39;2.00;;;1.90;;
59972;SDS011;55298;-36.624;-64.282;2022-11-18T07:28:07;2.10;;;2.00;;
59972;SDS011;55298;-36.624;-64.282;2022-11-18T07:30:36;2.25;;;2.00;;
59972;SDS011;55298;-36.624;-64.282;2022-11-18T07:33:04;2.10;;;1.90;;
59972;SDS011;55298;-36.624;-64.282;2022-11-18T07:35:32;2.10;;;2.00;;
59972;SDS011;55298;-36.624;-64.282;2022-11-18T07:38:00;2.00;;;1.90;;
59972;SDS011;55298;-36.624;-64.282;2022-11-18T07:40:28;2.20;;;2.10;;
59972;SDS011;55298;-36.624;-64.282;2022-11-18T07:42:55;2.40;;;2.05;;
59972;SDS011;55298;-36.624;-64.282;2022-11-18T07:45:24;2.00;;;1.90;;
59972;SDS011;55298;-36.624;-64.282;2022-11-18T07:47:52;2.55;;;2.05;;
59972;SDS011;55298;-36.624;-64.282;2022-11-18T07:50:21;2.00;;;1.90;;
59972;SDS011;55298;-36.624;-64.282;2022-11-18T07:52:50;2.20;;;2.00;;
59972;SDS011;55298;-36.624;-64.282;2022-11-18T07:55:21;2.20;;;2.10;;
59972;SDS011;55298;-36.624;-64.282;2022-11-18T07:57:49;2.53;;;2.28;;
59972;SDS011;55298;-36.624;-64.282;2022-11-18T08:00:17;2.30;;;2.10;;
59972;SDS011;55298;-36.624;-64.282;2022-11-18T08:02:48;2.38;;;2.17;;
59972;SDS011;55298;-36.624;-64.282;2022-11-18T08:05:17;4.10;;;2.20;;
59972;SDS011;55298;-36.624;-64.282;2022-11-18T08:07:44;2.30;;;2.10;;
59972;SDS011;55298;-36.624;-64.282;2022-11-18T08:10:13;2.10;;;2.00;;
59972;SDS011;55298;-36.624;-64.282;2022-11-18T08:12:41;2.63;;;2.53;;
59972;SDS011;55298;-36.624;-64.282;2022-11-18T08:15:10;2.40;;;2.20;;
59972;SDS011;55298;-36.624;-64.282;2022-11-18T08:17:39;2.10;;;2.00;;
59972;SDS011;55298;-36.624;-64.282;2022-11-18T08:20:09;2.15;;;2.05;;
59972;SDS011;55298;-36.624;-64.282;2022-11-18T08:22:37;2.30;;;2.20;;
59972;SDS011;55298;-36.624;-64.282;2022-11-18T08:25:05;2.50;;;2.30;;
59972;SDS011;55298;-36.624;-64.282;2022-11-18T08:27:33;2.40;;;2.30;;
59972;SDS011;55298;-36.624;-64.282;2022-11-18T08:30:00;2.30;;;2.20;;
59972;SDS011;55298;-36.624;-64.282;2022-11-18T08:32:29;2.20;;;2.00;;
59972;SDS011;55298;-36.624;-64.282;2022-11-18T08:34:58;2.50;;;2.10;;
59972;SDS011;55298;-36.624;-64.282;2022-11-18T08:37:27;2.40;;;2.20;;
59972;SDS011;55298;-36.624;-64.282;2022-11-18T08:39:55;2.78;;;1.95;;
59972;SDS011;55298;-36.624;-64.282;2022-11-18T08:42:24;2.58;;;2.38;;
59972;SDS011;55298;-36.624;-64.282;2022-11-18T08:44:51;4.30;;;2.42;;
59972;SDS011;55298;-36.624;-64.282;2022-11-18T08:47:19;3.90;;;2.40;;
59972;SDS011;55298;-36.624;-64.282;2022-11-18T08:49:47;2.42;;;2.15;;
59972;SDS011;55298;-36.624;-64.282;2022-11-18T08:52:14;2.30;;;2.20;;
59972;SDS011;55298;-36.624;-64.282;2022-11-18T08:54:43;2.63;;;2.42;;
59972;SDS011;55298;-36.624;-64.282;2022-11-18T08:57:13;2.65;;;2.30;;
59972;SDS011;55298;-36.624;-64.282;2022-11-18T08:59:42;2.97;;;2.15;;
59972;SDS011;55298;-36.624;-64.282;2022-11-18T09:02:14;2.50;;;2.30;;
59972;SDS011;55298;-36.624;-64.282;2022-11-18T09:04:45;2.42;;;2.30;;
59972;SDS011;55298;-36.624;-64.282;2022-11-18T09:07:16;5.15;;;2.88;;
59972;SDS011;55298;-36.624;-64.282;2022-11-18T09:09:44;2.50;;;2.30;;
59972;SDS011;55298;-36.624;-64.282;2022-11-18T09:12:11;2.25;;;2.15;;
59972;SDS011;55298;-36.624;-64.282;2022-11-18T09:14:43;2.25;;;2.10;;
59972;SDS011;55298;-36.624;-64.282;2022-11-18T09:17:11;2.60;;;2.40;;
59972;SDS011;55298;-36.624;-64.282;2022-11-18T09:19:43;2.67;;;2.10;;
59972;SDS011;55298;-36.624;-64.282;2022-11-18T09:22:11;2.38;;;2.28;;
59972;SDS011;55298;-36.624;-64.282;2022-11-18T09:24:44;2.95;;;2.20;;
59972;SDS011;55298;-36.624;-64.282;2022-11-18T09:27:11;2.47;;;2.28;;
59972;SDS011;55298;-36.624;-64.282;2022-11-18T09:29:40;2.70;;;2.50;;
59972;SDS011;55298;-36.624;-64.282;2022-11-18T09:32:08;2.60;;;2.40;;
59972;SDS011;55298;-36.624;-64.282;2022-11-18T09:34:35;2.88;;;2.38;;
59972;SDS011;55298;-36.624;-64.282;2022-11-18T09:37:04;5.78;;;2.78;;
59972;SDS011;55298;-36.624;-64.282;2022-11-18T09:39:34;2.47;;;2.28;;
59972;SDS011;55298;-36.624;-64.282;2022-11-18T09:44:58;2.22;;;2.03;;
59972;SDS011;55298;-36.624;-64.282;2022-11-18T09:47:35;2.40;;;2.20;;
59972;SDS011;55298;-36.624;-64.282;2022-11-18T09:50:05;4.25;;;2.40;;
59972;SDS011;55298;-36.624;-64.282;2022-11-18T09:55:36;2.85;;;2.65;;
59972;SDS011;55298;-36.624;-64.282;2022-11-18T10:01:09;2.60;;;2.40;;
59972;SDS011;55298;-36.624;-64.282;2022-11-18T10:03:39;2.50;;;2.30;;
59972;SDS011;55298;-36.624;-64.282;2022-11-18T10:09:45;2.75;;;2.40;;
59972;SDS011;55298;-36.624;-64.282;2022-11-18T10:26:32;3.50;;;3.20;;
59972;SDS011;55298;-36.624;-64.282;2022-11-18T10:29:02;3.60;;;3.30;;
59972;SDS011;55298;-36.624;-64.282;2022-11-18T10:36:41;5.75;;;3.42;;
59972;SDS011;55298;-36.624;-64.282;2022-11-18T10:39:14;3.70;;;3.40;;
59972;SDS011;55298;-36.624;-64.282;2022-11-18T10:41:51;4.00;;;3.63;;
59972;SDS011;55298;-36.624;-64.282;2022-11-18T10:44:26;4.25;;;3.50;;
59972;SDS011;55298;-36.624;-64.282;2022-11-18T10:47:27;4.00;;;3.58;;
59972;SDS011;55298;-36.624;-64.282;2022-11-18T10:49:52;4.05;;;3.70;;
59972;SDS011;55298;-36.624;-64.282;2022-11-18T10:52:21;5.18;;;4.15;;
59972;SDS011;55298;-36.624;-64.282;2022-11-18T10:57:54;7.72;;;4.40;;
59972;SDS011;55298;-36.624;-64.282;2022-11-18T11:00:39;4.43;;;4.03;;
59972;SDS011;55298;-36.624;-64.282;2022-11-18T11:06:32;5.25;;;4.40;;
59972;SDS011;55298;-36.624;-64.282;2022-11-18T11:09:08;6.40;;;4.90;;
59972;SDS011;55298;-36.624;-64.282;2022-11-18T11:11:57;22.98;;;19.55;;
59972;SDS011;55298;-36.624;-64.282;2022-11-18T11:14:42;6.35;;;5.20;;
59972;SDS011;55298;-36.624;-64.282;2022-11-18T11:20:18;6.65;;;4.78;;
59972;SDS011;55298;-36.624;-64.282;2022-11-18T11:23:10;6.22;;;4.80;;
59972;SDS011;55298;-36.624;-64.282;2022-11-18T11:25:56;7.85;;;5.28;;
59972;SDS011;55298;-36.624;-64.282;2022-11-18T11:28:55;5.10;;;4.68;;
59972;SDS011;55298;-36.624;-64.282;2022-11-18T11:31:56;5.30;;;4.80;;
59972;SDS011;55298;-36.624;-64.282;2022-11-18T11:34:50;6.10;;;4.53;;
59972;SDS011;55298;-36.624;-64.282;2022-11-18T11:37:39;5.57;;;4.68;;
59972;SDS011;55298;-36.624;-64.282;2022-11-18T11:40:22;8.40;;;4.95;;
59972;SDS011;55298;-36.624;-64.282;2022-11-18T11:43:10;6.18;;;4.47;;
59972;SDS011;55298;-36.624;-64.282;2022-11-18T11:57:04;6.18;;;5.22;;
59972;SDS011;55298;-36.624;-64.282;2022-11-18T12:06:13;6.70;;;5.22;;
59972;SDS011;55298;-36.624;-64.282;2022-11-18T12:08:47;5.32;;;4.75;;
59972;SDS011;55298;-36.624;-64.282;2022-11-18T12:11:33;5.15;;;4.63;;
59972;SDS011;55298;-36.624;-64.282;2022-11-18T12:14:27;5.63;;;5.15;;
59972;SDS011;55298;-36.624;-64.282;2022-11-18T12:23:09;6.65;;;6.03;;
59972;SDS011;55298;-36.624;-64.282;2022-11-18T12:26:08;7.30;;;4.95;;
59972;SDS011;55298;-36.624;-64.282;2022-11-18T12:28:42;5.25;;;4.75;;
59972;SDS011;55298;-36.624;-64.282;2022-11-18T12:31:25;5.90;;;4.93;;
59972;SDS011;55298;-36.624;-64.282;2022-11-18T12:34:04;5.20;;;4.70;;
59972;SDS011;55298;-36.624;-64.282;2022-11-18T12:36:46;6.55;;;5.20;;
59972;SDS011;55298;-36.624;-64.282;2022-11-18T12:39:44;5.63;;;5.18;;
59972;SDS011;55298;-36.624;-64.282;2022-11-18T12:48:29;5.13;;;4.53;;
59972;SDS011;55298;-36.624;-64.282;2022-11-18T12:54:13;7.03;;;6.32;;
59972;SDS011;55298;-36.624;-64.282;2022-11-18T12:56:56;5.50;;;5.10;;
59972;SDS011;55298;-36.624;-64.282;2022-11-18T12:59:33;5.90;;;5.32;;
59972;SDS011;55298;-36.624;-64.282;2022-11-18T13:02:18;8.18;;;6.30;;
59972;SDS011;55298;-36.624;-64.282;2022-11-18T13:05:42;7.20;;;6.00;;
59972;SDS011;55298;-36.624;-64.282;2022-11-18T13:07:54;6.45;;;5.85;;
59972;SDS011;55298;-36.624;-64.282;2022-11-18T13:13:56;5.90;;;5.20;;
59972;SDS011;55298;-36.624;-64.282;2022-11-18T13:16:34;6.03;;;5.50;;
59972;SDS011;55298;-36.624;-64.282;2022-11-18T13:19:09;5.88;;;5.32;;
59972;SDS011;55298;-36.624;-64.282;2022-11-18T13:21:55;6.28;;;5.68;;
59972;SDS011;55298;-36.624;-64.282;2022-11-18T13:24:41;6.03;;;5.53;;
59972;SDS011;55298;-36.624;-64.282;2022-11-18T13:27:19;5.40;;;5.00;;
59972;SDS011;55298;-36.624;-64.282;2022-11-18T13:30:09;7.15;;;6.53;;
59972;SDS011;55298;-36.624;-64.282;2022-11-18T13:32:41;6.30;;;5.70;;
59972;SDS011;55298;-36.624;-64.282;2022-11-18T13:35:19;5.95;;;5.38;;
59972;SDS011;55298;-36.624;-64.282;2022-11-18T13:41:14;5.45;;;5.05;;
59972;SDS011;55298;-36.624;-64.282;2022-11-18T13:47:32;5.70;;;5.05;;
59972;SDS011;55298;-36.624;-64.282;2022-11-18T13:50:21;6.63;;;6.03;;
59972;SDS011;55298;-36.624;-64.282;2022-11-18T13:56:48;5.60;;;5.10;;
59972;SDS011;55298;-36.624;-64.282;2022-11-18T13:59:47;5.53;;;5.03;;
59972;SDS011;55298;-36.624;-64.282;2022-11-18T14:02:19;6.75;;;6.15;;
59972;SDS011;55298;-36.624;-64.282;2022-11-18T14:04:50;5.88;;;5.15;;
59972;SDS011;55298;-36.624;-64.282;2022-11-18T14:07:28;5.57;;;5.10;;
59972;SDS011;55298;-36.624;-64.282;2022-11-18T14:10:09;5.70;;;5.30;;
59972;SDS011;55298;-36.624;-64.282;2022-11-18T14:12:44;5.18;;;4.78;;
59972;SDS011;55298;-36.624;-64.282;2022-11-18T14:15:33;4.95;;;4.55;;
59972;SDS011;55298;-36.624;-64.282;2022-11-18T14:18:02;5.20;;;4.80;;
59972;SDS011;55298;-36.624;-64.282;2022-11-18T14:20:54;5.20;;;4.80;;
59972;SDS011;55298;-36.624;-64.282;2022-11-18T14:23:30;4.82;;;4.47;;
59972;SDS011;55298;-36.624;-64.282;2022-11-18T14:26:03;5.72;;;4.65;;
59972;SDS011;55298;-36.624;-64.282;2022-11-18T14:28:35;5.63;;;5.13;;
59972;SDS011;55298;-36.624;-64.282;2022-11-18T14:31:24;5.15;;;4.65;;
59972;SDS011;55298;-36.624;-64.282;2022-11-18T14:34:15;5.82;;;5.32;;
59972;SDS011;55298;-36.624;-64.282;2022-11-18T14:36:51;4.88;;;4.38;;
59972;SDS011;55298;-36.624;-64.282;2022-11-18T14:39:29;6.28;;;4.95;;
59972;SDS011;55298;-36.624;-64.282;2022-11-18T14:42:02;5.40;;;4.82;;
59972;SDS011;55298;-36.624;-64.282;2022-11-18T14:44:37;5.40;;;5.00;;
59972;SDS011;55298;-36.624;-64.282;2022-11-18T14:49:53;4.95;;;4.63;;
59972;SDS011;55298;-36.624;-64.282;2022-11-18T14:52:22;5.75;;;4.80;;
59972;SDS011;55298;-36.624;-64.282;2022-11-18T14:54:59;5.18;;;4.57;;
59972;SDS011;55298;-36.624;-64.282;2022-11-18T14:57:28;4.75;;;4.25;;
59972;SDS011;55298;-36.624;-64.282;2022-11-18T14:59:55;5.35;;;4.28;;
59972;SDS011;55298;-36.624;-64.282;2022-11-18T15:02:41;5.03;;;4.63;;
59972;SDS011;55298;-36.624;-64.282;2022-11-18T15:05:10;4.65;;;4.25;;
59972;SDS011;55298;-36.624;-64.282;2022-11-18T15:07:39;4.65;;;4.25;;
59972;SDS011;55298;-36.624;-64.282;2022-11-18T15:10:16;4.55;;;3.97;;
59972;SDS011;55298;-36.624;-64.282;2022-11-18T15:12:45;3.80;;;3.50;;
59972;SDS011;55298;-36.624;-64.282;2022-11-18T15:15:13;3.95;;;3.58;;
59972;SDS011;55298;-36.624;-64.282;2022-11-18T15:18:11;3.85;;;3.55;;
59972;SDS011;55298;-36.624;-64.282;2022-11-18T15:21:14;4.07;;;3.40;;
59972;SDS011;55298;-36.624;-64.282;2022-11-18T15:23:44;3.60;;;3.30;;
59972;SDS011;55298;-36.624;-64.282;2022-11-18T15:28:53;3.88;;;3.58;;
59972;SDS011;55298;-36.624;-64.282;2022-11-18T15:31:24;3.55;;;3.33;;
59972;SDS011;55298;-36.624;-64.282;2022-11-18T15:33:52;3.85;;;3.40;;
59972;SDS011;55298;-36.624;-64.282;2022-11-18T15:36:26;4.30;;;3.30;;
59972;SDS011;55298;-36.624;-64.282;2022-11-18T15:38:55;4.32;;;3.58;;
59972;SDS011;55298;-36.624;-64.282;2022-11-18T15:41:30;3.47;;;3.20;;
59972;SDS011;55298;-36.624;-64.282;2022-11-18T15:44:10;3.85;;;3.55;;
59972;SDS011;55298;-36.624;-64.282;2022-11-18T15:51:48;3.78;;;3.47;;
59972;SDS011;55298;-36.624;-64.282;2022-11-18T15:54:19;3.55;;;3.33;;
59972;SDS011;55298;-36.624;-64.282;2022-11-18T15:56:47;6.07;;;5.53;;
59972;SDS011;55298;-36.624;-64.282;2022-11-18T15:59:15;3.92;;;3.70;;
59972;SDS011;55298;-36.624;-64.282;2022-11-18T16:01:45;3.28;;;3.08;;
59972;SDS011;55298;-36.624;-64.282;2022-11-18T16:04:16;3.13;;;2.83;;
59972;SDS011;55298;-36.624;-64.282;2022-11-18T16:06:46;3.85;;;2.92;;
59972;SDS011;55298;-36.624;-64.282;2022-11-18T16:09:18;4.07;;;3.30;;
59972;SDS011;55298;-36.624;-64.282;2022-11-18T16:12:11;4.65;;;3.05;;
59972;SDS011;55298;-36.624;-64.282;2022-11-18T16:14:51;3.20;;;2.97;;
59972;SDS011;55298;-36.624;-64.282;2022-11-18T16:17:54;3.83;;;3.45;;
59972;SDS011;55298;-36.624;-64.282;2022-11-18T16:20:44;2.92;;;2.78;;
59972;SDS011;55298;-36.624;-64.282;2022-11-18T16:23:11;3.47;;;3.22;;
59972;SDS011;55298;-36.624;-64.282;2022-11-18T16:26:08;3.13;;;2.92;;
59972;SDS011;55298;-36.624;-64.282;2022-11-18T16:28:40;5.70;;;3.28;;
59972;SDS011;55298;-36.624;-64.282;2022-11-18T16:31:15;3.85;;;3.47;;
59972;SDS011;55298;-36.624;-64.282;2022-11-18T16:33:53;3.60;;;3.30;;
59972;SDS011;55298;-36.624;-64.282;2022-11-18T16:36:28;4.20;;;3.42;;
59972;SDS011;55298;-36.624;-64.282;2022-11-18T16:39:03;3.70;;;3.45;;